Time;durP1;ratioP1;P1;durP2;ratioP2;P2;SDS_P1;SDS_P2;PMS_P1;PMS_P2;Temp;Humidity;BMP_temperature;BMP_pressure;BME280_temperature;BME280_humidity;BME280_pressure;Samples;Min_cycle;Max_cycle;Signal;HPM_P1;HPM_P2
2023/08/09 00:02:33;;;;;;;1.50;1.30;;;;;;;12.54;100.00;100224.16;6070585;29;20045;-92
2023/08/09 00:05:35;;;;;;;1.58;1.10;;;;;;;12.59;100.00;100215.97;6070127;29;20056;-92
2023/08/09 00:08:37;;;;;;;1.10;0.85;;;;;;;12.44;100.00;100203.44;6059122;29;20052;-95
2023/08/09 00:11:39;;;;;;;2.40;1.38;;;;;;;12.34;100.00;100201.81;6066652;29;20043;-94
2023/08/09 00:14:40;;;;;;;1.45;1.00;;;;;;;12.36;100.00;100197.31;6055344;29;20411;-95
2023/08/09 00:17:42;;;;;;;1.50;1.02;;;;;;;12.40;100.00;100199.50;6071077;29;20060;-94
2023/08/09 00:20:44;;;;;;;1.35;1.23;;;;;;;12.41;100.00;100195.13;6059311;29;20317;-94
2023/08/09 00:23:46;;;;;;;1.17;0.80;;;;;;;12.48;100.00;100196.19;6058124;29;20063;-93
2023/08/09 00:26:48;;;;;;;1.13;1.02;;;;;;;12.39;100.00;100184.88;6068426;29;20363;-95
2023/08/09 00:29:50;;;;;;;1.00;0.90;;;;;;;12.39;100.00;100182.25;6050295;29;20045;-93
2023/08/09 00:32:52;;;;;;;1.55;1.00;;;;;;;12.36;100.00;100189.53;6073963;29;20053;-94
2023/08/09 00:35:54;;;;;;;2.35;1.20;;;;;;;12.36;100.00;100199.91;6054118;29;20049;-95
2023/08/09 00:38:56;;;;;;;1.73;1.25;;;;;;;12.35;100.00;100204.28;6068751;29;20121;-94
2023/08/09 00:41:58;;;;;;;2.03;1.10;;;;;;;12.43;100.00;100214.78;6073830;29;20418;-94
2023/08/09 00:45:00;;;;;;;1.10;1.00;;;;;;;12.38;100.00;100223.97;6056986;29;20083;-94
2023/08/09 00:48:03;;;;;;;1.05;0.90;;;;;;;12.28;100.00;100218.78;6062811;29;20132;-94
2023/08/09 00:51:05;;;;;;;2.13;1.25;;;;;;;12.25;100.00;100203.50;6047315;29;20056;-93
2023/08/09 00:54:07;;;;;;;2.13;1.20;;;;;;;12.24;100.00;100202.66;6072220;29;20041;-94
2023/08/09 00:57:10;;;;;;;2.90;1.00;;;;;;;12.24;100.00;100210.44;6072966;29;20103;-94
2023/08/09 01:00:12;;;;;;;1.63;1.00;;;;;;;12.17;100.00;100214.56;6062395;29;20048;-94
2023/08/09 01:03:14;;;;;;;1.20;1.10;;;;;;;12.21;100.00;100209.91;6074137;29;20151;-93
2023/08/09 01:06:41;;;;;;;1.55;1.08;;;;;;;12.21;100.00;100209.91;6070133;29;20051;-94
2023/08/09 01:09:56;;;;;;;1.25;1.10;;;;;;;12.18;100.00;100213.59;6060779;29;20056;-94
2023/08/09 01:13:06;;;;;;;2.08;1.33;;;;;;;12.16;100.00;100205.13;6073034;29;20072;-93
2023/08/09 01:16:10;;;;;;;1.25;1.15;;;;;;;12.16;100.00;100204.34;6020538;29;20073;-94
2023/08/09 01:19:33;;;;;;;1.45;1.20;;;;;;;12.15;100.00;100197.47;6073913;29;20048;-95
2023/08/09 01:22:38;;;;;;;2.92;1.20;;;;;;;12.14;100.00;100206.25;6053135;29;20097;-94
2023/08/09 01:25:40;;;;;;;1.40;1.23;;;;;;;12.09;100.00;100209.25;6052966;29;20098;-94
2023/08/09 01:28:42;;;;;;;2.00;1.30;;;;;;;12.05;100.00;100208.72;6037169;29;20048;-94
2023/08/09 01:31:44;;;;;;;1.58;1.30;;;;;;;12.01;100.00;100224.69;6068736;29;20505;-95
2023/08/09 01:34:46;;;;;;;1.23;1.10;;;;;;;11.98;100.00;100236.16;6055933;29;20123;-94
2023/08/09 01:37:52;;;;;;;2.20;1.20;;;;;;;11.94;100.00;100247.75;6054555;29;20075;-94
2023/08/09 01:40:54;;;;;;;3.10;1.33;;;;;;;11.91;100.00;100260.19;6073585;29;20067;-94
2023/08/09 01:43:56;;;;;;;2.17;1.30;;;;;;;11.89;100.00;100264.69;6056305;29;20056;-94
2023/08/09 01:46:58;;;;;;;2.85;1.23;;;;;;;11.81;100.00;100270.53;6040868;29;20052;-93
2023/08/09 01:50:01;;;;;;;1.67;1.30;;;;;;;11.74;100.00;100267.66;6056170;29;20036;-94
2023/08/09 01:53:02;;;;;;;3.75;1.55;;;;;;;11.67;100.00;100276.91;6073556;29;20112;-94
2023/08/09 01:56:05;;;;;;;2.83;1.50;;;;;;;11.60;100.00;100279.25;6067006;29;20073;-94
2023/08/09 01:59:09;;;;;;;2.75;1.30;;;;;;;11.57;100.00;100283.84;6046452;29;20414;-93
2023/08/09 02:02:11;;;;;;;1.63;1.40;;;;;;;11.54;100.00;100278.94;6073775;29;20503;-94
2023/08/09 02:05:14;;;;;;;3.50;1.75;;;;;;;11.49;100.00;100279.34;6073955;29;20501;-94
2023/08/09 02:08:17;;;;;;;2.90;1.40;;;;;;;11.47;100.00;100280.44;6045374;29;20156;-95
2023/08/09 02:11:20;;;;;;;2.05;1.52;;;;;;;11.42;100.00;100280.81;6056567;29;20049;-95
2023/08/09 02:14:21;;;;;;;3.55;1.73;;;;;;;11.37;100.00;100277.81;6064035;29;20048;-93
2023/08/09 02:17:24;;;;;;;3.28;1.50;;;;;;;11.30;100.00;100274.91;6033121;29;20514;-93
2023/08/09 02:20:27;;;;;;;2.70;1.45;;;;;;;11.28;100.00;100270.81;6065486;29;20079;-95
2023/08/09 02:23:29;;;;;;;3.25;1.58;;;;;;;11.19;100.00;100278.44;6073352;29;20045;-93
2023/08/09 02:26:33;;;;;;;2.55;1.30;;;;;;;11.13;100.00;100278.13;6040897;29;20060;-94
2023/08/09 02:29:36;;;;;;;2.47;1.48;;;;;;;11.06;100.00;100284.81;6074666;29;20048;-93
2023/08/09 02:32:38;;;;;;;2.92;1.50;;;;;;;10.98;100.00;100283.69;6070209;29;20455;-93
2023/08/09 02:35:58;;;;;;;2.88;1.42;;;;;;;10.94;100.00;100284.88;6052059;29;20384;-94
2023/08/09 02:38:59;;;;;;;5.47;1.83;;;;;;;10.90;100.00;100287.88;6069043;29;20092;-93
2023/08/09 02:42:01;;;;;;;2.30;1.42;;;;;;;10.88;100.00;100294.94;6057557;29;20064;-93
2023/08/09 02:45:05;;;;;;;2.17;1.88;;;;;;;10.83;100.00;100291.91;6070315;29;20064;-93
2023/08/09 02:48:08;;;;;;;3.00;1.52;;;;;;;10.77;100.00;100291.47;6061986;29;20555;-93
2023/08/09 02:51:10;;;;;;;4.43;1.63;;;;;;;10.85;100.00;100300.38;6049991;29;20056;-94
2023/08/09 02:54:12;;;;;;;2.20;1.90;;;;;;;10.77;100.00;100304.44;6056231;29;20563;-94
2023/08/09 02:57:14;;;;;;;2.85;1.77;;;;;;;10.72;100.00;100303.19;6044988;29;20049;-93
2023/08/09 03:00:16;;;;;;;2.20;1.70;;;;;;;10.71;100.00;100307.53;6045909;29;20053;-94
2023/08/09 03:03:19;;;;;;;2.55;1.80;;;;;;;10.71;100.00;100304.94;6063555;29;20049;-94
2023/08/09 03:06:22;;;;;;;3.38;1.92;;;;;;;10.69;100.00;100309.44;6051355;29;20088;-94
2023/08/09 03:09:24;;;;;;;5.25;2.20;;;;;;;10.70;100.00;100315.41;6050517;29;20052;-93
2023/08/09 03:12:26;;;;;;;6.07;2.30;;;;;;;10.70;100.00;100324.00;6077442;29;20167;-94
2023/08/09 03:15:28;;;;;;;4.70;2.33;;;;;;;10.69;100.00;100322.38;6048356;29;20049;-92
2023/08/09 03:18:30;;;;;;;2.78;1.95;;;;;;;10.65;100.00;100322.75;6068217;29;20048;-93
2023/08/09 03:21:34;;;;;;;5.70;2.30;;;;;;;10.68;100.00;100328.50;6051885;29;20065;-94
2023/08/09 03:24:37;;;;;;;1.95;1.77;;;;;;;10.67;100.00;100324.25;6050303;29;20115;-95
2023/08/09 03:27:40;;;;;;;3.08;2.28;;;;;;;10.74;100.00;100329.75;6040433;29;20041;-93
2023/08/09 03:30:43;;;;;;;3.70;2.22;;;;;;;10.73;100.00;100328.09;6057100;29;20138;-95
2023/08/09 03:33:45;;;;;;;4.43;2.25;;;;;;;10.75;100.00;100337.38;6056086;29;20051;-93
2023/08/09 03:36:46;;;;;;;5.57;2.25;;;;;;;10.71;100.00;100341.19;6072236;29;20060;-93
2023/08/09 03:39:48;;;;;;;3.15;2.00;;;;;;;10.71;100.00;100342.97;6056153;29;20503;-93
2023/08/09 03:42:51;;;;;;;3.30;1.98;;;;;;;10.71;100.00;100355.91;6072317;29;20033;-94
2023/08/09 03:45:53;;;;;;;3.67;2.33;;;;;;;10.70;100.00;100355.06;6073249;29;20108;-93
2023/08/09 03:48:55;;;;;;;5.72;2.53;;;;;;;10.69;100.00;100360.38;6065321;29;20045;-93
2023/08/09 03:51:58;;;;;;;3.83;2.33;;;;;;;10.75;100.00;100360.69;6056155;29;20044;-94
2023/08/09 03:55:00;;;;;;;3.30;2.10;;;;;;;10.85;100.00;100362.53;6054481;29;20164;-94
2023/08/09 03:58:02;;;;;;;4.38;2.63;;;;;;;10.83;100.00;100369.59;6048792;29;20149;-94
2023/08/09 04:01:04;;;;;;;3.47;2.40;;;;;;;10.80;100.00;100369.84;6052235;29;20044;-94
2023/08/09 04:04:07;;;;;;;3.47;2.80;;;;;;;10.78;100.00;100377.72;6074215;29;20053;-93
2023/08/09 04:07:10;;;;;;;4.10;2.65;;;;;;;10.77;100.00;100376.91;6050794;29;20045;-94
2023/08/09 04:10:12;;;;;;;4.15;2.80;;;;;;;10.81;100.00;100372.31;6072427;29;20546;-94
2023/08/09 04:13:14;;;;;;;5.28;3.13;;;;;;;10.78;100.00;100388.09;6055613;29;20040;-94
2023/08/09 04:16:16;;;;;;;4.70;2.97;;;;;;;10.73;100.00;100390.22;6054429;29;20056;-93
2023/08/09 04:19:18;;;;;;;4.93;2.40;;;;;;;10.76;100.00;100388.22;6054866;29;20581;-93
2023/08/09 04:22:19;;;;;;;3.63;2.83;;;;;;;10.74;100.00;100392.72;6063699;29;20063;-92
2023/08/09 04:25:21;;;;;;;4.07;2.90;;;;;;;10.74;100.00;100395.31;6067750;29;20036;-92
2023/08/09 04:28:23;;;;;;;4.95;2.58;;;;;;;10.76;100.00;100396.00;6073952;29;20519;-94
2023/08/09 04:31:25;;;;;;;5.13;3.03;;;;;;;10.75;100.00;100399.53;6062434;29;20041;-93
2023/08/09 04:34:26;;;;;;;4.38;2.90;;;;;;;10.77;100.00;100394.22;6064096;29;20060;-93
2023/08/09 04:37:28;;;;;;;5.28;2.92;;;;;;;10.77;100.00;100396.81;6071512;29;20040;-93
2023/08/09 04:40:31;;;;;;;3.95;2.60;;;;;;;10.75;100.00;100399.53;6051580;29;20053;-92
2023/08/09 04:43:34;;;;;;;4.28;2.85;;;;;;;10.79;100.00;100418.22;6070520;29;20059;-92
2023/08/09 04:46:36;;;;;;;4.95;3.10;;;;;;;10.79;100.00;100413.06;6070464;29;20041;-92
2023/08/09 04:49:37;;;;;;;4.38;2.97;;;;;;;10.77;100.00;100414.94;6053632;29;20048;-92
2023/08/09 04:52:42;;;;;;;6.00;3.15;;;;;;;10.77;100.00;100412.34;6052513;29;20052;-92
2023/08/09 04:55:43;;;;;;;3.92;2.75;;;;;;;10.75;100.00;100414.25;6064652;29;20045;-93
2023/08/09 04:58:46;;;;;;;4.95;2.83;;;;;;;10.73;100.00;100423.88;6062795;29;20495;-93
2023/08/09 05:01:48;;;;;;;4.13;2.78;;;;;;;10.74;100.00;100422.97;6071084;29;20041;-93
2023/08/09 05:04:50;;;;;;;4.43;2.53;;;;;;;10.77;100.00;100425.28;6067408;29;20081;-93
2023/08/09 05:07:52;;;;;;;3.55;2.75;;;;;;;10.80;100.00;100432.81;6060172;29;20052;-93
2023/08/09 05:10:53;;;;;;;3.50;2.60;;;;;;;10.82;100.00;100436.09;6070187;29;20294;-93
2023/08/09 05:13:55;;;;;;;4.53;3.03;;;;;;;10.87;100.00;100436.53;6068105;29;20057;-92
2023/08/09 05:16:57;;;;;;;3.08;2.78;;;;;;;10.94;100.00;100429.91;6064184;29;20056;-91
2023/08/09 05:19:59;;;;;;;4.05;2.70;;;;;;;11.02;100.00;100442.22;6055280;29;20128;-92
2023/08/09 05:23:01;;;;;;;3.22;2.22;;;;;;;11.08;100.00;100444.34;6065786;29;20092;-92
2023/08/09 05:26:02;;;;;;;4.93;2.78;;;;;;;11.09;100.00;100442.56;6057945;29;20118;-92
2023/08/09 05:29:04;;;;;;;6.03;2.42;;;;;;;11.16;100.00;100441.09;6068745;29;20048;-94
2023/08/09 05:32:06;;;;;;;3.13;2.35;;;;;;;11.21;100.00;100444.13;6053403;29;20041;-92
2023/08/09 05:35:08;;;;;;;5.90;2.42;;;;;;;11.26;100.00;100439.41;6059093;29;20044;-92
2023/08/09 05:38:10;;;;;;;5.05;2.20;;;;;;;11.39;100.00;100454.75;6075711;29;20067;-93
2023/08/09 05:41:12;;;;;;;4.28;2.40;;;;;;;11.46;100.00;100448.09;6058563;29;20048;-92
2023/08/09 05:44:14;;;;;;;3.47;2.05;;;;;;;11.55;100.00;100443.88;6058281;29;20522;-91
2023/08/09 05:47:15;;;;;;;3.50;2.70;;;;;;;11.60;100.00;100437.38;6075027;29;20029;-92
2023/08/09 05:50:17;;;;;;;4.88;2.38;;;;;;;11.79;100.00;100439.22;6074161;29;20521;-93
2023/08/09 05:53:19;;;;;;;5.40;2.47;;;;;;;11.83;100.00;100437.19;6071628;29;20071;-92
2023/08/09 05:56:22;;;;;;;3.63;2.47;;;;;;;11.87;100.00;100438.59;6057605;29;20048;-92
2023/08/09 05:59:23;;;;;;;3.55;2.33;;;;;;;11.93;100.00;100440.66;6071499;29;20451;-93
2023/08/09 06:02:26;;;;;;;5.20;2.63;;;;;;;12.00;100.00;100433.16;6050738;29;20045;-94
2023/08/09 06:05:28;;;;;;;2.50;1.88;;;;;;;12.05;100.00;100431.03;6065030;29;20055;-93
2023/08/09 06:08:30;;;;;;;5.35;2.33;;;;;;;12.10;100.00;100438.38;6064500;29;20048;-92
2023/08/09 06:11:32;;;;;;;5.63;2.30;;;;;;;12.15;100.00;100431.84;6067508;29;20518;-92
2023/08/09 06:14:34;;;;;;;3.45;2.25;;;;;;;12.24;100.00;100441.41;6046953;29;20049;-93
2023/08/09 06:17:37;;;;;;;5.32;1.90;;;;;;;12.31;100.00;100438.28;6069233;29;20052;-92
2023/08/09 06:20:39;;;;;;;5.78;2.40;;;;;;;12.34;100.00;100433.63;6067165;29;20497;-92
2023/08/09 06:23:41;;;;;;;2.90;1.98;;;;;;;12.40;100.00;100440.91;6074779;29;20415;-94
2023/08/09 06:26:43;;;;;;;8.35;3.38;;;;;;;12.44;100.00;100444.03;6079028;29;20044;-92
2023/08/09 06:29:45;;;;;;;3.03;1.75;;;;;;;12.53;100.00;100445.03;6052636;29;20055;-93
2023/08/09 06:32:48;;;;;;;4.80;1.95;;;;;;;12.57;100.00;100444.63;6033094;29;20135;-93
2023/08/09 06:35:50;;;;;;;1.73;1.40;;;;;;;12.69;100.00;100448.72;6062525;29;20400;-91
2023/08/09 06:38:52;;;;;;;3.28;1.48;;;;;;;12.73;100.00;100441.47;6068084;29;20045;-92
2023/08/09 06:41:53;;;;;;;4.03;1.55;;;;;;;12.83;100.00;100441.47;6049820;29;20515;-91
2023/08/09 06:44:56;;;;;;;3.92;1.67;;;;;;;12.84;100.00;100443.09;6049519;29;20048;-91
2023/08/09 06:47:57;;;;;;;3.67;1.50;;;;;;;12.87;100.00;100445.44;6074478;29;20044;-93
2023/08/09 06:51:00;;;;;;;3.35;1.55;;;;;;;12.92;100.00;100454.44;6043835;29;20049;-91
2023/08/09 06:54:02;;;;;;;3.38;1.35;;;;;;;12.99;100.00;100449.50;6063778;29;20107;-94
2023/08/09 06:57:04;;;;;;;2.80;1.60;;;;;;;13.09;100.00;100452.94;6073376;29;20057;-91
2023/08/09 07:00:15;;;;;;;3.78;1.30;;;;;;;13.17;100.00;100462.63;6060823;29;20051;-89
2023/08/09 07:03:17;;;;;;;5.25;1.40;;;;;;;13.21;100.00;100461.38;6056819;29;20060;-93
2023/08/09 07:06:19;;;;;;;2.10;1.38;;;;;;;13.25;100.00;100467.13;6073896;29;20040;-92
2023/08/09 07:09:21;;;;;;;2.40;1.40;;;;;;;13.28;100.00;100469.47;6061402;29;20486;-93
2023/08/09 07:12:23;;;;;;;5.40;1.30;;;;;;;13.34;100.00;100464.53;6069841;29;20041;-94
2023/08/09 07:15:25;;;;;;;3.08;1.35;;;;;;;13.44;100.00;100477.50;6078524;29;20528;-91
2023/08/09 07:18:27;;;;;;;2.08;1.20;;;;;;;13.43;100.00;100478.47;6062697;29;20480;-93
2023/08/09 07:21:29;;;;;;;3.55;1.45;;;;;;;13.43;100.00;100472.44;6033283;29;20041;-94
2023/08/09 07:24:33;;;;;;;4.22;1.45;;;;;;;13.46;100.00;100474.75;6071206;29;20041;-93
2023/08/09 07:27:43;;;;;;;3.92;1.40;;;;;;;13.50;100.00;100476.13;6067983;29;20414;-93
2023/08/09 07:30:45;;;;;;;3.28;1.45;;;;;;;13.55;100.00;100482.53;6040109;29;20513;-94
2023/08/09 07:33:48;;;;;;;3.38;1.40;;;;;;;13.54;100.00;100480.91;6072286;29;20569;-94
2023/08/09 07:36:50;;;;;;;3.50;1.20;;;;;;;13.55;100.00;100490.34;6056200;29;20097;-94
2023/08/09 07:39:52;;;;;;;2.70;1.30;;;;;;;13.66;100.00;100489.31;6072091;29;20045;-93
2023/08/09 07:42:55;;;;;;;2.70;1.08;;;;;;;13.72;100.00;100495.75;6071268;29;20056;-93
2023/08/09 07:45:57;;;;;;;2.63;1.10;;;;;;;13.74;100.00;100493.84;6056036;29;20197;-93
2023/08/09 07:48:59;;;;;;;2.95;1.40;;;;;;;13.84;100.00;100496.38;6073288;29;20044;-91
2023/08/09 07:52:01;;;;;;;6.50;1.50;;;;;;;13.88;100.00;100487.34;6056227;29;20053;-95
2023/08/09 07:55:05;;;;;;;4.97;1.30;;;;;;;14.00;100.00;100500.03;6055903;29;20517;-92
2023/08/09 07:58:07;;;;;;;4.75;1.40;;;;;;;14.17;100.00;100502.81;6067923;29;20052;-94
2023/08/09 08:01:09;;;;;;;1.77;1.05;;;;;;;14.23;100.00;100494.44;6055840;29;20057;-92
2023/08/09 08:04:11;;;;;;;4.65;1.30;;;;;;;14.22;100.00;100498.81;6056261;29;20048;-95
2023/08/09 08:07:14;;;;;;;3.00;1.13;;;;;;;14.23;100.00;100510.03;6071885;29;20085;-94
2023/08/09 08:10:16;;;;;;;7.15;1.20;;;;;;;14.49;100.00;100518.00;6064251;29;20388;-93
2023/08/09 08:13:19;;;;;;;3.97;1.20;;;;;;;14.69;100.00;100520.50;6054886;29;20598;-95
2023/08/09 08:16:21;;;;;;;3.63;1.42;;;;;;;14.79;100.00;100519.47;6069493;29;20088;-94
2023/08/09 08:19:23;;;;;;;4.88;1.30;;;;;;;14.93;100.00;100522.50;6055724;29;20427;-94
2023/08/09 08:22:25;;;;;;;1.95;1.10;;;;;;;15.10;100.00;100529.50;6055273;29;20065;-93
2023/08/09 08:25:27;;;;;;;5.47;1.23;;;;;;;15.09;100.00;100527.88;6055770;29;20041;-93
2023/08/09 08:28:30;;;;;;;2.13;0.98;;;;;;;15.11;100.00;100515.50;6056137;29;20048;-94
2023/08/09 08:31:32;;;;;;;2.03;0.88;;;;;;;15.16;100.00;100523.69;6071986;29;20053;-93
2023/08/09 08:34:34;;;;;;;5.00;1.40;;;;;;;15.34;100.00;100534.09;6072596;29;20048;-93
2023/08/09 08:37:38;;;;;;;4.53;1.23;;;;;;;15.39;100.00;100528.41;6054821;29;20559;-93
2023/08/09 08:40:41;;;;;;;2.80;1.23;;;;;;;15.35;100.00;100535.72;6043935;29;20044;-93
2023/08/09 08:43:44;;;;;;;3.15;1.00;;;;;;;15.49;100.00;100531.75;6073260;29;20053;-92
2023/08/09 08:46:46;;;;;;;3.33;1.10;;;;;;;15.68;100.00;100530.72;6076547;29;20127;-93
2023/08/09 08:49:50;;;;;;;2.35;1.10;;;;;;;16.03;100.00;100527.19;6076584;29;20063;-91
2023/08/09 08:52:53;;;;;;;2.03;1.10;;;;;;;16.15;100.00;100531.16;6051955;29;20426;-93
2023/08/09 08:55:56;;;;;;;2.78;1.13;;;;;;;16.07;100.00;100530.28;6073343;29;20045;-93
2023/08/09 08:58:59;;;;;;;1.42;0.75;;;;;;;15.75;100.00;100539.63;6045547;29;20085;-93
2023/08/09 09:02:02;;;;;;;1.80;0.85;;;;;;;15.74;100.00;100534.53;6076373;29;20503;-93
2023/08/09 09:05:09;;;;;;;2.85;0.90;;;;;;;15.95;100.00;100535.00;6076748;29;20503;-93
2023/08/09 09:08:13;;;;;;;1.83;0.90;;;;;;;16.03;100.00;100531.59;6038199;29;20049;-92
2023/08/09 09:11:18;;;;;;;2.47;0.90;;;;;;;16.15;100.00;100536.38;6063744;29;20049;-96
2023/08/09 09:14:21;;;;;;;1.83;0.88;;;;;;;16.38;100.00;100538.41;6059503;29;20402;-95
2023/08/09 09:17:25;;;;;;;2.33;0.90;;;;;;;16.58;100.00;100531.94;6044092;29;20341;-93
2023/08/09 09:20:29;;;;;;;2.90;1.15;;;;;;;16.83;100.00;100539.84;6058438;29;20443;-93
2023/08/09 09:23:32;;;;;;;2.10;0.90;;;;;;;16.76;100.00;100549.28;6058339;29;20049;-95
2023/08/09 09:26:37;;;;;;;4.60;0.98;;;;;;;16.67;100.00;100531.94;6067430;29;20233;-96
2023/08/09 09:29:43;;;;;;;2.15;0.93;;;;;;;16.90;100.00;100543.47;6069453;29;20077;-93
2023/08/09 09:32:57;;;;;;;2.63;1.07;;;;;;;17.13;100.00;100550.66;6060876;29;20052;-95
2023/08/09 09:35:59;;;;;;;;;;;;;;;17.57;100.00;100535.41;6075636;29;20794;-96
2023/08/09 09:39:14;;;;;;;2.83;0.73;;;;;;;17.44;100.00;100549.03;6051866;29;19931;-93
2023/08/09 09:42:16;;;;;;;1.13;0.90;;;;;;;17.49;100.00;100542.44;6048995;29;20123;-96
2023/08/09 09:45:31;;;;;;;3.40;0.90;;;;;;;18.03;100.00;100537.44;6078524;29;20045;-96
2023/08/09 09:48:33;;;;;;;3.80;1.13;;;;;;;18.35;100.00;100541.72;6069003;29;20101;-96
2023/08/09 09:51:42;;;;;;;2.75;0.80;;;;;;;18.44;100.00;100547.75;6061361;29;20079;-96
2023/08/09 09:54:45;;;;;;;2.40;0.63;;;;;;;18.56;100.00;100541.13;6041638;29;20048;-96
2023/08/09 09:57:47;;;;;;;3.05;0.90;;;;;;;18.60;100.00;100539.78;6057754;29;20526;-95
2023/08/09 10:00:55;;;;;;;1.95;0.82;;;;;;;18.37;100.00;100542.38;6065877;29;20298;-95
2023/08/09 10:04:08;;;;;;;2.67;0.82;;;;;;;18.42;100.00;100541.84;6067223;29;20053;-96
2023/08/09 10:07:12;;;;;;;3.40;0.60;;;;;;;18.18;100.00;100542.78;6080491;29;20457;-96
2023/08/09 10:10:22;;;;;;;1.35;0.70;;;;;;;18.09;100.00;100547.25;6051090;29;20059;-96
2023/08/09 10:13:28;;;;;;;1.27;0.95;;;;;;;17.67;100.00;100545.72;6063100;29;20539;-94
2023/08/09 10:17:01;;;;;;;2.13;0.80;;;;;;;17.33;100.00;100548.53;6061764;29;20105;-96
2023/08/09 10:20:18;;;;;;;2.22;0.80;;;;;;;17.86;100.00;100547.16;6069020;29;20047;-95
2023/08/09 10:23:30;;;;;;;2.42;0.93;;;;;;;18.25;100.00;100557.66;6057223;29;20184;-96
2023/08/09 10:26:33;;;;;;;1.83;0.90;;;;;;;17.88;100.00;100563.50;6065793;29;20053;-96
2023/08/09 10:29:40;;;;;;;1.55;1.00;;;;;;;17.62;100.00;100574.19;6038027;29;20060;-96
2023/08/09 10:32:56;;;;;;;1.75;0.93;;;;;;;17.89;100.00;100559.09;6068710;29;20048;-95
2023/08/09 10:36:02;;;;;;;0.90;0.77;;;;;;;18.26;100.00;100566.31;6077197;29;20051;-96
2023/08/09 10:39:18;;;;;;;2.17;0.95;;;;;;;18.62;100.00;100578.94;6070269;29;20045;-94
2023/08/09 10:42:25;;;;;;;0.80;0.80;;;;;;;18.36;100.00;100576.59;6074753;29;20043;-96
2023/08/09 10:45:31;;;;;;;1.45;0.82;;;;;;;18.18;100.00;100584.72;6059173;29;20048;-96
2023/08/09 10:48:48;;;;;;;2.10;0.80;;;;;;;18.52;100.00;100566.03;6070728;29;20053;-96
2023/08/09 10:51:50;;;;;;;2.47;1.02;;;;;;;18.75;100.00;100581.00;6073112;29;20108;-94
2023/08/09 10:55:26;;;;;;;1.23;0.75;;;;;;;18.84;100.00;100572.94;6049931;29;20053;-94
2023/08/09 10:58:29;;;;;;;3.10;0.80;;;;;;;18.96;100.00;100562.06;6073678;29;20044;-96
2023/08/09 11:01:33;;;;;;;2.25;0.90;;;;;;;18.89;100.00;100567.97;6064767;29;20051;-96
2023/08/09 11:04:36;;;;;;;2.22;0.93;;;;;;;18.72;100.00;100579.53;6070233;29;20045;-95
2023/08/09 11:07:51;;;;;;;2.30;1.02;;;;;;;18.86;100.00;100576.22;6059583;29;20500;-96
2023/08/09 11:10:54;;;;;;;2.08;1.10;;;;;;;19.28;100.00;100580.16;6047513;29;20043;-95
2023/08/09 11:13:56;;;;;;;6.72;1.20;;;;;;;19.36;100.00;100587.97;6069577;29;20049;-95
2023/08/09 11:16:58;;;;;;;2.15;0.75;;;;;;;19.13;100.00;100582.75;6047628;29;20059;-96
2023/08/09 11:20:14;;;;;;;1.90;0.95;;;;;;;19.22;100.00;100591.34;6069965;29;20044;-96
2023/08/09 11:23:20;;;;;;;0.80;0.80;;;;;;;19.50;100.00;100586.38;6062869;29;20064;-96
2023/08/09 11:26:25;;;;;;;2.55;0.90;;;;;;;19.34;100.00;100579.44;6074073;29;20517;-96
2023/08/09 11:29:28;;;;;;;1.65;0.80;;;;;;;18.76;100.00;100585.28;6071776;29;20044;-95
2023/08/09 11:32:35;;;;;;;1.75;0.73;;;;;;;18.54;100.00;100590.28;6037309;29;20064;-96
2023/08/09 11:35:49;;;;;;;1.00;0.85;;;;;;;18.52;100.00;100592.25;6078148;29;20410;-96
2023/08/09 11:39:16;;;;;;;4.72;0.95;;;;;;;19.12;100.00;100575.84;6066726;29;20119;-96
2023/08/09 11:42:19;;;;;;;1.05;0.90;;;;;;;19.43;100.00;100588.09;6070879;29;20500;-96
2023/08/09 11:45:21;;;;;;;1.27;0.82;;;;;;;18.95;100.00;100590.06;6052850;29;20053;-96
2023/08/09 11:48:25;;;;;;;1.10;1.00;;;;;;;18.76;100.00;100590.50;6059191;29;20057;-94
2023/08/09 11:51:32;;;;;;;1.40;0.90;;;;;;;18.90;100.00;100598.47;6055595;29;20053;-95
2023/08/09 11:54:36;;;;;;;2.17;0.95;;;;;;;19.01;100.00;100599.06;6067607;29;20526;-96
2023/08/09 11:57:39;;;;;;;1.13;0.80;;;;;;;18.89;100.00;100611.75;6069965;29;20040;-95
2023/08/09 12:00:42;;;;;;;1.75;0.88;;;;;;;18.66;100.00;100606.47;6070811;29;20476;-95
2023/08/09 12:03:50;;;;;;;1.10;0.70;;;;;;;18.94;100.00;100612.06;6051904;29;20060;-96
2023/08/09 12:06:54;;;;;;;0.70;0.70;;;;;;;18.89;100.00;100611.75;6055516;29;20132;-96
2023/08/09 12:10:02;;;;;;;0.80;0.80;;;;;;;19.18;100.00;100610.25;6072826;29;20045;-94
2023/08/09 12:13:05;;;;;;;1.80;0.88;;;;;;;19.81;100.00;100609.09;6067615;29;20400;-95
2023/08/09 12:16:07;;;;;;;1.38;0.80;;;;;;;20.31;100.00;100607.53;6070317;29;20127;-94
2023/08/09 12:19:09;;;;;;;0.93;0.77;;;;;;;20.92;100.00;100615.16;6066299;29;20049;-93
2023/08/09 12:22:12;;;;;;;0.80;0.73;;;;;;;21.54;100.00;100610.25;6069285;29;20049;-93
2023/08/09 12:25:14;;;;;;;0.90;0.57;;;;;;;21.59;100.00;100629.78;6073893;29;20125;-95
2023/08/09 12:28:16;;;;;;;2.25;0.80;;;;;;;21.27;97.29;100637.16;6076132;29;20047;-93
2023/08/09 12:31:18;;;;;;;2.05;0.77;;;;;;;21.05;95.48;100625.00;6053662;29;20386;-93
2023/08/09 12:34:21;;;;;;;1.17;0.77;;;;;;;21.50;100.00;100630.91;6075931;29;20100;-92
2023/08/09 12:37:24;;;;;;;1.10;0.70;;;;;;;21.52;97.98;100642.06;6057347;29;20521;-94
2023/08/09 12:40:26;;;;;;;1.65;0.60;;;;;;;21.18;93.58;100645.38;6074788;29;20044;-96
2023/08/09 12:43:28;;;;;;;1.77;0.80;;;;;;;21.42;92.43;100644.22;6070671;29;20055;-93
2023/08/09 12:46:31;;;;;;;0.63;0.63;;;;;;;21.24;88.73;100640.19;6058442;29;20045;-96
2023/08/09 12:49:36;;;;;;;1.83;0.80;;;;;;;20.83;99.69;100635.50;6052736;29;20135;-94
2023/08/09 12:52:38;;;;;;;2.00;0.60;;;;;;;21.14;100.00;100642.31;6069754;29;20065;-95
2023/08/09 12:55:41;;;;;;;0.85;0.70;;;;;;;21.85;100.00;100641.50;6054413;29;20049;-93
2023/08/09 12:58:43;;;;;;;1.95;0.80;;;;;;;21.60;98.79;100649.84;6068535;29;20045;-92
2023/08/09 13:01:45;;;;;;;1.15;0.80;;;;;;;20.92;96.34;100652.00;6054928;29;20052;-93
2023/08/09 13:04:47;;;;;;;2.45;1.00;;;;;;;20.82;100.00;100649.66;6070348;29;20048;-94
2023/08/09 13:07:50;;;;;;;0.70;0.70;;;;;;;21.06;97.89;100658.22;6074498;29;20045;-92
2023/08/09 13:10:52;;;;;;;1.35;0.80;;;;;;;21.56;98.84;100653.84;6070975;29;20072;-93
2023/08/09 13:13:54;;;;;;;1.02;0.85;;;;;;;21.92;92.91;100655.53;6056994;29;20048;-92
2023/08/09 13:16:56;;;;;;;1.13;0.70;;;;;;;22.60;94.00;100647.81;6071019;29;20095;-91
2023/08/09 13:19:58;;;;;;;1.58;0.90;;;;;;;23.13;86.48;100648.00;6038060;29;20515;-92
2023/08/09 13:23:00;;;;;;;1.20;0.85;;;;;;;23.41;82.37;100641.72;6053845;29;20055;-91
2023/08/09 13:26:02;;;;;;;1.20;0.75;;;;;;;23.64;84.49;100650.03;6070914;29;20367;-92
2023/08/09 13:29:04;;;;;;;1.80;0.70;;;;;;;22.95;80.37;100656.44;6067335;29;20555;-91
2023/08/09 13:32:05;;;;;;;0.95;0.70;;;;;;;22.35;88.21;100650.13;6053600;29;20626;-93
2023/08/09 13:35:09;;;;;;;2.38;0.80;;;;;;;21.86;93.31;100651.88;6037823;29;20053;-92
2023/08/09 13:38:32;;;;;;;0.98;0.85;;;;;;;21.40;94.04;100643.59;6071026;29;20523;-91
2023/08/09 13:41:34;;;;;;;1.33;0.77;;;;;;;21.02;99.01;100656.97;6072644;29;20205;-92
2023/08/09 13:44:36;;;;;;;1.33;0.82;;;;;;;21.03;98.63;100654.13;6078334;29;20513;-92
2023/08/09 13:47:38;;;;;;;1.35;0.80;;;;;;;21.35;100.00;100644.13;6073123;29;20076;-91
2023/08/09 13:50:40;;;;;;;1.73;1.00;;;;;;;21.78;99.97;100664.34;6068178;29;20052;-90
2023/08/09 13:53:42;;;;;;;1.63;0.80;;;;;;;21.78;98.92;100657.25;6075283;29;20037;-91
2023/08/09 13:56:44;;;;;;;0.90;0.77;;;;;;;22.14;99.15;100661.56;6074201;29;20361;-90
2023/08/09 13:59:45;;;;;;;1.23;0.80;;;;;;;22.49;98.06;100667.66;6068986;29;20047;-91
2023/08/09 14:02:47;;;;;;;2.05;1.02;;;;;;;22.84;80.02;100666.78;6057623;29;20055;-90
2023/08/09 14:05:50;;;;;;;1.67;0.80;;;;;;;23.68;85.48;100665.50;6073372;29;20131;-90
2023/08/09 14:08:52;;;;;;;1.48;0.80;;;;;;;24.25;87.88;100670.13;6071796;29;20136;-90